sensor_id;sensor_type;location;lat;lon;timestamp;P1;durP1;ratioP1;P2;durP2;ratioP2
43086;SDS011;28708;52.224;6.924;2024-03-08T00:01:01;17.03;;;7.33;;
43086;SDS011;28708;52.224;6.924;2024-03-08T00:03:26;18.27;;;7.37;;
43086;SDS011;28708;52.224;6.924;2024-03-08T00:05:54;16.93;;;8.23;;
43086;SDS011;28708;52.224;6.924;2024-03-08T00:08:21;15.07;;;7.23;;
43086;SDS011;28708;52.224;6.924;2024-03-08T00:10:46;13.70;;;7.73;;
43086;SDS011;28708;52.224;6.924;2024-03-08T00:13:12;15.13;;;6.97;;
43086;SDS011;28708;52.224;6.924;2024-03-08T00:15:38;19.13;;;7.60;;
43086;SDS011;28708;52.224;6.924;2024-03-08T00:18:03;14.43;;;7.50;;
43086;SDS011;28708;52.224;6.924;2024-03-08T00:20:29;16.03;;;7.40;;
43086;SDS011;28708;52.224;6.924;2024-03-08T00:22:55;17.50;;;7.57;;
43086;SDS011;28708;52.224;6.924;2024-03-08T00:25:23;12.93;;;6.97;;
43086;SDS011;28708;52.224;6.924;2024-03-08T00:27:49;16.03;;;7.57;;
43086;SDS011;28708;52.224;6.924;2024-03-08T00:30:14;15.87;;;8.27;;
43086;SDS011;28708;52.224;6.924;2024-03-08T00:32:40;15.97;;;7.70;;
43086;SDS011;28708;52.224;6.924;2024-03-08T00:35:06;18.10;;;8.20;;
43086;SDS011;28708;52.224;6.924;2024-03-08T00:37:32;12.90;;;7.17;;
43086;SDS011;28708;52.224;6.924;2024-03-08T00:39:59;16.80;;;7.90;;
43086;SDS011;28708;52.224;6.924;2024-03-08T00:42:25;18.00;;;6.50;;
43086;SDS011;28708;52.224;6.924;2024-03-08T00:44:51;20.50;;;7.90;;
43086;SDS011;28708;52.224;6.924;2024-03-08T00:47:17;15.97;;;7.97;;
43086;SDS011;28708;52.224;6.924;2024-03-08T00:49:43;20.40;;;8.70;;
43086;SDS011;28708;52.224;6.924;2024-03-08T00:52:08;15.50;;;7.57;;
43086;SDS011;28708;52.224;6.924;2024-03-08T00:54:34;16.63;;;8.40;;
43086;SDS011;28708;52.224;6.924;2024-03-08T00:57:03;11.77;;;6.67;;
43086;SDS011;28708;52.224;6.924;2024-03-08T00:59:29;14.70;;;7.70;;
43086;SDS011;28708;52.224;6.924;2024-03-08T01:01:58;16.00;;;7.90;;
43086;SDS011;28708;52.224;6.924;2024-03-08T01:04:25;19.67;;;8.60;;
43086;SDS011;28708;52.224;6.924;2024-03-08T01:06:53;14.60;;;7.63;;
43086;SDS011;28708;52.224;6.924;2024-03-08T01:09:21;16.00;;;7.73;;
43086;SDS011;28708;52.224;6.924;2024-03-08T01:11:47;19.37;;;9.40;;
43086;SDS011;28708;52.224;6.924;2024-03-08T01:14:13;14.20;;;7.37;;
43086;SDS011;28708;52.224;6.924;2024-03-08T01:16:39;15.23;;;7.63;;
43086;SDS011;28708;52.224;6.924;2024-03-08T01:19:04;16.57;;;8.27;;
43086;SDS011;28708;52.224;6.924;2024-03-08T01:21:30;18.30;;;8.47;;
43086;SDS011;28708;52.224;6.924;2024-03-08T01:23:56;14.83;;;7.27;;
43086;SDS011;28708;52.224;6.924;2024-03-08T01:26:21;16.37;;;7.97;;
43086;SDS011;28708;52.224;6.924;2024-03-08T01:28:47;15.93;;;7.40;;
43086;SDS011;28708;52.224;6.924;2024-03-08T01:31:12;20.83;;;8.20;;
43086;SDS011;28708;52.224;6.924;2024-03-08T01:33:38;23.73;;;8.13;;
43086;SDS011;28708;52.224;6.924;2024-03-08T01:36:05;14.93;;;7.97;;
43086;SDS011;28708;52.224;6.924;2024-03-08T01:38:31;16.17;;;7.63;;
43086;SDS011;28708;52.224;6.924;2024-03-08T01:40:56;14.77;;;7.83;;
43086;SDS011;28708;52.224;6.924;2024-03-08T01:43:25;17.03;;;8.37;;
43086;SDS011;28708;52.224;6.924;2024-03-08T01:45:55;19.33;;;8.43;;
43086;SDS011;28708;52.224;6.924;2024-03-08T01:48:33;11.80;;;6.37;;
43086;SDS011;28708;52.224;6.924;2024-03-08T01:50:59;16.80;;;8.47;;
43086;SDS011;28708;52.224;6.924;2024-03-08T01:53:26;16.57;;;7.83;;
43086;SDS011;28708;52.224;6.924;2024-03-08T01:55:53;17.80;;;6.83;;
43086;SDS011;28708;52.224;6.924;2024-03-08T01:58:21;13.97;;;7.40;;
43086;SDS011;28708;52.224;6.924;2024-03-08T02:00:48;17.63;;;8.13;;
43086;SDS011;28708;52.224;6.924;2024-03-08T02:03:17;14.87;;;8.03;;
43086;SDS011;28708;52.224;6.924;2024-03-08T02:05:43;20.23;;;8.27;;
43086;SDS011;28708;52.224;6.924;2024-03-08T02:08:08;15.97;;;7.63;;
43086;SDS011;28708;52.224;6.924;2024-03-08T02:10:39;14.05;;;7.90;;
43086;SDS011;28708;52.224;6.924;2024-03-08T02:13:08;14.88;;;7.80;;
43086;SDS011;28708;52.224;6.924;2024-03-08T02:18:19;18.03;;;8.57;;
43086;SDS011;28708;52.224;6.924;2024-03-08T02:21:01;16.17;;;7.33;;
43086;SDS011;28708;52.224;6.924;2024-03-08T02:23:28;17.97;;;8.37;;
43086;SDS011;28708;52.224;6.924;2024-03-08T02:25:55;17.70;;;7.80;;
43086;SDS011;28708;52.224;6.924;2024-03-08T02:28:21;15.30;;;7.30;;
43086;SDS011;28708;52.224;6.924;2024-03-08T02:30:48;13.73;;;7.63;;
43086;SDS011;28708;52.224;6.924;2024-03-08T02:33:16;15.13;;;7.53;;
43086;SDS011;28708;52.224;6.924;2024-03-08T02:35:43;16.20;;;7.60;;
43086;SDS011;28708;52.224;6.924;2024-03-08T02:38:12;14.98;;;8.23;;
43086;SDS011;28708;52.224;6.924;2024-03-08T02:40:41;14.20;;;7.30;;
43086;SDS011;28708;52.224;6.924;2024-03-08T02:43:08;17.40;;;8.17;;
43086;SDS011;28708;52.224;6.924;2024-03-08T02:45:34;15.13;;;8.50;;
43086;SDS011;28708;52.224;6.924;2024-03-08T02:48:00;17.43;;;8.37;;
43086;SDS011;28708;52.224;6.924;2024-03-08T02:50:26;15.83;;;7.70;;
43086;SDS011;28708;52.224;6.924;2024-03-08T02:52:51;17.10;;;8.47;;
43086;SDS011;28708;52.224;6.924;2024-03-08T02:55:17;17.83;;;8.90;;
43086;SDS011;28708;52.224;6.924;2024-03-08T02:57:43;16.60;;;8.13;;
43086;SDS011;28708;52.224;6.924;2024-03-08T03:00:09;13.53;;;6.40;;
43086;SDS011;28708;52.224;6.924;2024-03-08T03:02:36;18.47;;;7.30;;
43086;SDS011;28708;52.224;6.924;2024-03-08T03:05:02;15.07;;;7.23;;
43086;SDS011;28708;52.224;6.924;2024-03-08T03:07:31;14.53;;;8.03;;
43086;SDS011;28708;52.224;6.924;2024-03-08T03:10:00;17.73;;;8.75;;
43086;SDS011;28708;52.224;6.924;2024-03-08T03:12:30;14.00;;;7.77;;
43086;SDS011;28708;52.224;6.924;2024-03-08T03:14:56;15.10;;;8.27;;
43086;SDS011;28708;52.224;6.924;2024-03-08T03:17:25;15.47;;;7.93;;
43086;SDS011;28708;52.224;6.924;2024-03-08T03:19:52;17.30;;;8.07;;
43086;SDS011;28708;52.224;6.924;2024-03-08T03:22:18;16.63;;;8.70;;
43086;SDS011;28708;52.224;6.924;2024-03-08T03:24:45;16.90;;;8.33;;
43086;SDS011;28708;52.224;6.924;2024-03-08T03:27:14;14.65;;;7.07;;
43086;SDS011;28708;52.224;6.924;2024-03-08T03:29:40;14.60;;;8.17;;
43086;SDS011;28708;52.224;6.924;2024-03-08T03:34:39;16.73;;;7.80;;
43086;SDS011;28708;52.224;6.924;2024-03-08T03:37:05;18.10;;;8.63;;
43086;SDS011;28708;52.224;6.924;2024-03-08T03:39:37;17.13;;;9.07;;
43086;SDS011;28708;52.224;6.924;2024-03-08T03:42:14;16.10;;;7.97;;
43086;SDS011;28708;52.224;6.924;2024-03-08T03:44:41;15.40;;;7.77;;
43086;SDS011;28708;52.224;6.924;2024-03-08T03:47:11;15.93;;;7.53;;
43086;SDS011;28708;52.224;6.924;2024-03-08T03:49:36;17.47;;;8.23;;
43086;SDS011;28708;52.224;6.924;2024-03-08T03:52:02;18.87;;;8.73;;
43086;SDS011;28708;52.224;6.924;2024-03-08T03:54:29;22.60;;;8.40;;
43086;SDS011;28708;52.224;6.924;2024-03-08T03:56:55;18.03;;;8.47;;
43086;SDS011;28708;52.224;6.924;2024-03-08T03:59:21;15.50;;;7.87;;
43086;SDS011;28708;52.224;6.924;2024-03-08T04:01:47;13.80;;;7.37;;
43086;SDS011;28708;52.224;6.924;2024-03-08T04:04:14;17.27;;;8.73;;
43086;SDS011;28708;52.224;6.924;2024-03-08T04:06:40;21.80;;;8.47;;
43086;SDS011;28708;52.224;6.924;2024-03-08T04:09:06;17.07;;;9.00;;
43086;SDS011;28708;52.224;6.924;2024-03-08T04:11:32;13.87;;;7.80;;
43086;SDS011;28708;52.224;6.924;2024-03-08T04:13:58;13.60;;;7.97;;
43086;SDS011;28708;52.224;6.924;2024-03-08T04:16:24;16.87;;;8.27;;
43086;SDS011;28708;52.224;6.924;2024-03-08T04:18:51;14.73;;;8.13;;
43086;SDS011;28708;52.224;6.924;2024-03-08T04:21:17;18.10;;;9.30;;
43086;SDS011;28708;52.224;6.924;2024-03-08T04:23:44;21.27;;;9.10;;
43086;SDS011;28708;52.224;6.924;2024-03-08T04:26:10;18.07;;;7.90;;
43086;SDS011;28708;52.224;6.924;2024-03-08T04:28:36;13.40;;;7.30;;
43086;SDS011;28708;52.224;6.924;2024-03-08T04:31:03;19.53;;;10.27;;
43086;SDS011;28708;52.224;6.924;2024-03-08T04:33:29;20.20;;;8.53;;
43086;SDS011;28708;52.224;6.924;2024-03-08T04:35:55;16.13;;;8.17;;
43086;SDS011;28708;52.224;6.924;2024-03-08T04:38:21;20.77;;;8.60;;
43086;SDS011;28708;52.224;6.924;2024-03-08T04:40:46;16.63;;;8.40;;
43086;SDS011;28708;52.224;6.924;2024-03-08T04:43:12;17.90;;;9.13;;
43086;SDS011;28708;52.224;6.924;2024-03-08T04:45:39;16.73;;;8.33;;
43086;SDS011;28708;52.224;6.924;2024-03-08T04:48:07;15.83;;;8.63;;
43086;SDS011;28708;52.224;6.924;2024-03-08T04:50:33;18.17;;;9.37;;
43086;SDS011;28708;52.224;6.924;2024-03-08T04:52:59;14.47;;;8.37;;
43086;SDS011;28708;52.224;6.924;2024-03-08T04:55:24;16.03;;;9.00;;
43086;SDS011;28708;52.224;6.924;2024-03-08T04:57:50;18.23;;;8.23;;
43086;SDS011;28708;52.224;6.924;2024-03-08T05:00:16;21.83;;;9.53;;
43086;SDS011;28708;52.224;6.924;2024-03-08T05:02:42;17.23;;;8.77;;
43086;SDS011;28708;52.224;6.924;2024-03-08T05:05:08;16.10;;;8.40;;
43086;SDS011;28708;52.224;6.924;2024-03-08T05:07:38;18.30;;;9.63;;
43086;SDS011;28708;52.224;6.924;2024-03-08T05:10:08;20.33;;;8.73;;
43086;SDS011;28708;52.224;6.924;2024-03-08T05:12:34;18.20;;;8.30;;
43086;SDS011;28708;52.224;6.924;2024-03-08T05:15:00;15.67;;;7.97;;
43086;SDS011;28708;52.224;6.924;2024-03-08T05:17:25;22.40;;;9.70;;
43086;SDS011;28708;52.224;6.924;2024-03-08T05:19:51;16.20;;;8.93;;
43086;SDS011;28708;52.224;6.924;2024-03-08T05:22:16;17.53;;;9.23;;
43086;SDS011;28708;52.224;6.924;2024-03-08T05:24:45;19.27;;;9.00;;
43086;SDS011;28708;52.224;6.924;2024-03-08T05:27:11;15.17;;;7.87;;
43086;SDS011;28708;52.224;6.924;2024-03-08T05:29:38;19.43;;;8.00;;
43086;SDS011;28708;52.224;6.924;2024-03-08T05:32:03;17.50;;;8.97;;
43086;SDS011;28708;52.224;6.924;2024-03-08T05:34:29;20.97;;;9.07;;
43086;SDS011;28708;52.224;6.924;2024-03-08T05:36:55;17.80;;;8.67;;
43086;SDS011;28708;52.224;6.924;2024-03-08T05:39:23;16.80;;;8.70;;
43086;SDS011;28708;52.224;6.924;2024-03-08T05:41:49;18.13;;;9.20;;
43086;SDS011;28708;52.224;6.924;2024-03-08T05:44:15;17.97;;;9.30;;
43086;SDS011;28708;52.224;6.924;2024-03-08T05:46:42;16.57;;;9.00;;
43086;SDS011;28708;52.224;6.924;2024-03-08T05:49:08;20.40;;;9.63;;
43086;SDS011;28708;52.224;6.924;2024-03-08T05:51:35;20.67;;;9.13;;
43086;SDS011;28708;52.224;6.924;2024-03-08T05:54:06;18.87;;;9.40;;
43086;SDS011;28708;52.224;6.924;2024-03-08T05:56:36;20.80;;;9.10;;
43086;SDS011;28708;52.224;6.924;2024-03-08T05:59:03;18.37;;;9.53;;
43086;SDS011;28708;52.224;6.924;2024-03-08T06:01:29;20.03;;;10.17;;
43086;SDS011;28708;52.224;6.924;2024-03-08T06:04:01;22.43;;;10.50;;
43086;SDS011;28708;52.224;6.924;2024-03-08T06:06:27;22.53;;;10.17;;
43086;SDS011;28708;52.224;6.924;2024-03-08T06:08:53;23.57;;;9.10;;
43086;SDS011;28708;52.224;6.924;2024-03-08T06:11:21;22.60;;;9.37;;
43086;SDS011;28708;52.224;6.924;2024-03-08T06:13:48;20.73;;;9.87;;
43086;SDS011;28708;52.224;6.924;2024-03-08T06:16:15;19.57;;;9.30;;
43086;SDS011;28708;52.224;6.924;2024-03-08T06:18:40;16.07;;;8.50;;
43086;SDS011;28708;52.224;6.924;2024-03-08T06:21:06;19.83;;;9.40;;
43086;SDS011;28708;52.224;6.924;2024-03-08T06:23:37;18.83;;;8.87;;
43086;SDS011;28708;52.224;6.924;2024-03-08T06:26:05;21.93;;;9.30;;
43086;SDS011;28708;52.224;6.924;2024-03-08T06:28:31;19.63;;;9.43;;
43086;SDS011;28708;52.224;6.924;2024-03-08T06:31:00;19.40;;;8.87;;
43086;SDS011;28708;52.224;6.924;2024-03-08T06:33:26;20.43;;;9.87;;
43086;SDS011;28708;52.224;6.924;2024-03-08T06:35:55;19.57;;;10.33;;
43086;SDS011;28708;52.224;6.924;2024-03-08T06:38:25;18.85;;;9.05;;
43086;SDS011;28708;52.224;6.924;2024-03-08T06:40:51;16.47;;;8.50;;
43086;SDS011;28708;52.224;6.924;2024-03-08T06:43:17;26.10;;;10.60;;
43086;SDS011;28708;52.224;6.924;2024-03-08T06:45:44;20.03;;;9.27;;
43086;SDS011;28708;52.224;6.924;2024-03-08T06:48:17;18.33;;;8.43;;
43086;SDS011;28708;52.224;6.924;2024-03-08T06:50:43;21.03;;;9.60;;
43086;SDS011;28708;52.224;6.924;2024-03-08T06:53:10;22.00;;;10.43;;
43086;SDS011;28708;52.224;6.924;2024-03-08T06:55:36;18.00;;;9.77;;
43086;SDS011;28708;52.224;6.924;2024-03-08T06:58:02;20.13;;;8.90;;
43086;SDS011;28708;52.224;6.924;2024-03-08T07:00:27;19.87;;;9.53;;
43086;SDS011;28708;52.224;6.924;2024-03-08T07:02:55;17.57;;;9.07;;
43086;SDS011;28708;52.224;6.924;2024-03-08T07:05:22;22.27;;;9.60;;
43086;SDS011;28708;52.224;6.924;2024-03-08T07:07:49;18.33;;;9.63;;
43086;SDS011;28708;52.224;6.924;2024-03-08T07:10:16;17.30;;;8.73;;
43086;SDS011;28708;52.224;6.924;2024-03-08T07:12:42;19.27;;;9.23;;
43086;SDS011;28708;52.224;6.924;2024-03-08T07:15:07;22.00;;;10.13;;
43086;SDS011;28708;52.224;6.924;2024-03-08T07:17:38;18.60;;;9.63;;
43086;SDS011;28708;52.224;6.924;2024-03-08T07:20:05;19.73;;;10.40;;
43086;SDS011;28708;52.224;6.924;2024-03-08T07:22:36;19.33;;;8.30;;
43086;SDS011;28708;52.224;6.924;2024-03-08T07:25:02;18.33;;;9.77;;
43086;SDS011;28708;52.224;6.924;2024-03-08T07:27:49;21.17;;;10.43;;
43086;SDS011;28708;52.224;6.924;2024-03-08T07:30:19;16.90;;;8.43;;
43086;SDS011;28708;52.224;6.924;2024-03-08T07:33:08;22.77;;;9.20;;
43086;SDS011;28708;52.224;6.924;2024-03-08T07:35:37;22.50;;;9.87;;
43086;SDS011;28708;52.224;6.924;2024-03-08T07:38:06;18.00;;;9.13;;
43086;SDS011;28708;52.224;6.924;2024-03-08T07:40:37;17.17;;;8.37;;
43086;SDS011;28708;52.224;6.924;2024-03-08T07:43:09;16.50;;;8.50;;
43086;SDS011;28708;52.224;6.924;2024-03-08T07:45:38;19.17;;;9.80;;
43086;SDS011;28708;52.224;6.924;2024-03-08T07:48:05;18.97;;;9.47;;
43086;SDS011;28708;52.224;6.924;2024-03-08T07:50:38;20.00;;;9.50;;
43086;SDS011;28708;52.224;6.924;2024-03-08T07:53:04;20.52;;;10.25;;
43086;SDS011;28708;52.224;6.924;2024-03-08T07:55:32;18.77;;;9.20;;
43086;SDS011;28708;52.224;6.924;2024-03-08T07:57:58;17.67;;;9.43;;
43086;SDS011;28708;52.224;6.924;2024-03-08T08:00:24;20.57;;;9.20;;
43086;SDS011;28708;52.224;6.924;2024-03-08T08:02:52;17.73;;;9.03;;
43086;SDS011;28708;52.224;6.924;2024-03-08T08:05:18;16.93;;;9.57;;
43086;SDS011;28708;52.224;6.924;2024-03-08T08:07:45;15.73;;;8.67;;
43086;SDS011;28708;52.224;6.924;2024-03-08T08:10:14;21.37;;;9.20;;
43086;SDS011;28708;52.224;6.924;2024-03-08T08:12:43;19.27;;;8.50;;
43086;SDS011;28708;52.224;6.924;2024-03-08T08:15:10;17.90;;;8.60;;
43086;SDS011;28708;52.224;6.924;2024-03-08T08:17:37;16.67;;;9.10;;
43086;SDS011;28708;52.224;6.924;2024-03-08T08:20:06;17.83;;;8.90;;
43086;SDS011;28708;52.224;6.924;2024-03-08T08:22:33;19.33;;;8.93;;
43086;SDS011;28708;52.224;6.924;2024-03-08T08:24:58;19.03;;;9.33;;
43086;SDS011;28708;52.224;6.924;2024-03-08T08:27:24;18.30;;;8.70;;
43086;SDS011;28708;52.224;6.924;2024-03-08T08:29:51;19.00;;;9.47;;
43086;SDS011;28708;52.224;6.924;2024-03-08T08:32:16;16.47;;;9.03;;
43086;SDS011;28708;52.224;6.924;2024-03-08T08:34:43;18.40;;;9.40;;
43086;SDS011;28708;52.224;6.924;2024-03-08T08:37:09;15.10;;;8.13;;
43086;SDS011;28708;52.224;6.924;2024-03-08T08:39:35;17.37;;;9.03;;
43086;SDS011;28708;52.224;6.924;2024-03-08T08:42:01;17.07;;;9.20;;
43086;SDS011;28708;52.224;6.924;2024-03-08T08:44:28;16.43;;;9.20;;
43086;SDS011;28708;52.224;6.924;2024-03-08T08:46:56;17.37;;;8.87;;
43086;SDS011;28708;52.224;6.924;2024-03-08T08:49:22;17.87;;;9.90;;
43086;SDS011;28708;52.224;6.924;2024-03-08T08:51:52;19.43;;;9.73;;
43086;SDS011;28708;52.224;6.924;2024-03-08T08:54:18;20.38;;;9.15;;
43086;SDS011;28708;52.224;6.924;2024-03-08T08:56:45;17.03;;;8.10;;
43086;SDS011;28708;52.224;6.924;2024-03-08T08:59:12;22.07;;;9.67;;
43086;SDS011;28708;52.224;6.924;2024-03-08T09:01:44;18.07;;;9.27;;
43086;SDS011;28708;52.224;6.924;2024-03-08T09:04:12;16.90;;;8.20;;
43086;SDS011;28708;52.224;6.924;2024-03-08T09:06:38;16.60;;;8.67;;
43086;SDS011;28708;52.224;6.924;2024-03-08T09:09:06;15.17;;;8.03;;
43086;SDS011;28708;52.224;6.924;2024-03-08T09:11:36;15.77;;;7.93;;
43086;SDS011;28708;52.224;6.924;2024-03-08T09:14:06;21.53;;;9.43;;
43086;SDS011;28708;52.224;6.924;2024-03-08T09:16:35;20.33;;;9.53;;
43086;SDS011;28708;52.224;6.924;2024-03-08T09:19:02;15.45;;;8.70;;
43086;SDS011;28708;52.224;6.924;2024-03-08T09:21:27;17.17;;;8.63;;
43086;SDS011;28708;52.224;6.924;2024-03-08T09:23:53;18.77;;;9.13;;
43086;SDS011;28708;52.224;6.924;2024-03-08T09:26:19;18.10;;;8.30;;
43086;SDS011;28708;52.224;6.924;2024-03-08T09:28:44;18.70;;;8.83;;
43086;SDS011;28708;52.224;6.924;2024-03-08T09:31:10;19.73;;;8.17;;
43086;SDS011;28708;52.224;6.924;2024-03-08T09:33:37;17.93;;;8.00;;
43086;SDS011;28708;52.224;6.924;2024-03-08T09:36:04;17.13;;;8.50;;
43086;SDS011;28708;52.224;6.924;2024-03-08T09:38:32;15.37;;;8.10;;
43086;SDS011;28708;52.224;6.924;2024-03-08T09:40:59;16.73;;;8.00;;
43086;SDS011;28708;52.224;6.924;2024-03-08T09:43:26;17.50;;;8.37;;
43086;SDS011;28708;52.224;6.924;2024-03-08T09:45:53;20.13;;;8.83;;
43086;SDS011;28708;52.224;6.924;2024-03-08T09:48:20;15.83;;;7.77;;
43086;SDS011;28708;52.224;6.924;2024-03-08T09:50:47;15.57;;;8.00;;
43086;SDS011;28708;52.224;6.924;2024-03-08T09:53:16;18.60;;;8.03;;
43086;SDS011;28708;52.224;6.924;2024-03-08T09:55:42;18.87;;;8.87;;
43086;SDS011;28708;52.224;6.924;2024-03-08T09:58:11;16.23;;;8.20;;
43086;SDS011;28708;52.224;6.924;2024-03-08T10:00:57;14.97;;;8.27;;
43086;SDS011;28708;52.224;6.924;2024-03-08T10:03:23;15.17;;;7.93;;
43086;SDS011;28708;52.224;6.924;2024-03-08T10:05:52;12.13;;;7.20;;
43086;SDS011;28708;52.224;6.924;2024-03-08T10:08:21;16.00;;;8.20;;
43086;SDS011;28708;52.224;6.924;2024-03-08T10:10:47;15.00;;;7.87;;
43086;SDS011;28708;52.224;6.924;2024-03-08T10:13:14;15.50;;;7.40;;
43086;SDS011;28708;52.224;6.924;2024-03-08T10:15:41;13.73;;;7.37;;
43086;SDS011;28708;52.224;6.924;2024-03-08T10:18:10;14.23;;;8.00;;
43086;SDS011;28708;52.224;6.924;2024-03-08T10:20:36;16.07;;;8.70;;
43086;SDS011;28708;52.224;6.924;2024-03-08T10:23:02;18.20;;;9.10;;
43086;SDS011;28708;52.224;6.924;2024-03-08T10:25:30;16.80;;;9.60;;
43086;SDS011;28708;52.224;6.924;2024-03-08T10:27:56;14.57;;;8.90;;
43086;SDS011;28708;52.224;6.924;2024-03-08T10:30:22;14.87;;;8.70;;
43086;SDS011;28708;52.224;6.924;2024-03-08T10:32:48;15.30;;;9.67;;
43086;SDS011;28708;52.224;6.924;2024-03-08T10:35:14;19.07;;;9.87;;
43086;SDS011;28708;52.224;6.924;2024-03-08T10:40:20;17.73;;;10.10;;
43086;SDS011;28708;52.224;6.924;2024-03-08T10:42:53;15.40;;;9.63;;
43086;SDS011;28708;52.224;6.924;2024-03-08T10:50:41;16.43;;;9.33;;
43086;SDS011;28708;52.224;6.924;2024-03-08T10:53:10;16.17;;;9.38;;
43086;SDS011;28708;52.224;6.924;2024-03-08T10:55:39;18.47;;;10.43;;
43086;SDS011;28708;52.224;6.924;2024-03-08T10:58:06;18.97;;;8.90;;
43086;SDS011;28708;52.224;6.924;2024-03-08T11:00:33;16.73;;;9.13;;
43086;SDS011;28708;52.224;6.924;2024-03-08T11:03:00;19.03;;;9.67;;
43086;SDS011;28708;52.224;6.924;2024-03-08T11:05:41;16.50;;;10.10;;
43086;SDS011;28708;52.224;6.924;2024-03-08T11:08:18;15.27;;;9.83;;
43086;SDS011;28708;52.224;6.924;2024-03-08T11:10:51;19.20;;;10.10;;
43086;SDS011;28708;52.224;6.924;2024-03-08T11:16:09;15.13;;;9.43;;
43086;SDS011;28708;52.224;6.924;2024-03-08T11:18:36;15.60;;;9.43;;
43086;SDS011;28708;52.224;6.924;2024-03-08T11:21:07;15.95;;;9.10;;
43086;SDS011;28708;52.224;6.924;2024-03-08T11:23:37;14.73;;;9.33;;
43086;SDS011;28708;52.224;6.924;2024-03-08T11:26:17;19.10;;;9.80;;
43086;SDS011;28708;52.224;6.924;2024-03-08T11:28:46;17.00;;;8.63;;
43086;SDS011;28708;52.224;6.924;2024-03-08T11:33:39;17.07;;;9.50;;
43086;SDS011;28708;52.224;6.924;2024-03-08T11:36:12;15.60;;;8.75;;
43086;SDS011;28708;52.224;6.924;2024-03-08T11:38:44;16.37;;;8.97;;
43086;SDS011;28708;52.224;6.924;2024-03-08T11:41:13;14.40;;;8.90;;
43086;SDS011;28708;52.224;6.924;2024-03-08T11:43:45;14.53;;;8.77;;
43086;SDS011;28708;52.224;6.924;2024-03-08T11:46:12;16.87;;;9.63;;
43086;SDS011;28708;52.224;6.924;2024-03-08T11:48:42;17.23;;;9.10;;
43086;SDS011;28708;52.224;6.924;2024-03-08T11:53:38;12.35;;;7.38;;
43086;SDS011;28708;52.224;6.924;2024-03-08T11:56:13;15.17;;;8.07;;
43086;SDS011;28708;52.224;6.924;2024-03-08T11:58:41;12.70;;;7.77;;
43086;SDS011;28708;52.224;6.924;2024-03-08T12:01:10;14.60;;;8.30;;
43086;SDS011;28708;52.224;6.924;2024-03-08T12:03:38;13.53;;;7.97;;
43086;SDS011;28708;52.224;6.924;2024-03-08T12:06:12;12.80;;;7.63;;
43086;SDS011;28708;52.224;6.924;2024-03-08T12:08:38;12.77;;;7.60;;
43086;SDS011;28708;52.224;6.924;2024-03-08T12:11:04;10.90;;;6.63;;
43086;SDS011;28708;52.224;6.924;2024-03-08T12:13:31;11.13;;;6.93;;
43086;SDS011;28708;52.224;6.924;2024-03-08T12:15:59;12.37;;;7.10;;
43086;SDS011;28708;52.224;6.924;2024-03-08T12:18:25;12.33;;;6.73;;
43086;SDS011;28708;52.224;6.924;2024-03-08T12:21:03;11.90;;;6.60;;
43086;SDS011;28708;52.224;6.924;2024-03-08T12:23:42;12.48;;;6.65;;
43086;SDS011;28708;52.224;6.924;2024-03-08T12:26:16;11.03;;;6.17;;
43086;SDS011;28708;52.224;6.924;2024-03-08T12:28:49;11.35;;;6.88;;
43086;SDS011;28708;52.224;6.924;2024-03-08T12:31:17;11.57;;;6.33;;
43086;SDS011;28708;52.224;6.924;2024-03-08T12:33:52;11.83;;;6.97;;
43086;SDS011;28708;52.224;6.924;2024-03-08T12:36:20;11.67;;;6.53;;
43086;SDS011;28708;52.224;6.924;2024-03-08T12:38:46;12.97;;;6.40;;
43086;SDS011;28708;52.224;6.924;2024-03-08T12:41:13;10.50;;;6.10;;
43086;SDS011;28708;52.224;6.924;2024-03-08T12:43:42;11.20;;;6.22;;
43086;SDS011;28708;52.224;6.924;2024-03-08T12:46:14;11.83;;;6.47;;
43086;SDS011;28708;52.224;6.924;2024-03-08T12:48:47;12.00;;;7.07;;
43086;SDS011;28708;52.224;6.924;2024-03-08T12:51:16;11.47;;;6.23;;
43086;SDS011;28708;52.224;6.924;2024-03-08T12:53:43;11.20;;;6.55;;
43086;SDS011;28708;52.224;6.924;2024-03-08T12:56:15;12.10;;;6.50;;
43086;SDS011;28708;52.224;6.924;2024-03-08T12:58:53;11.00;;;6.17;;
43086;SDS011;28708;52.224;6.924;2024-03-08T13:01:19;11.73;;;6.27;;
43086;SDS011;28708;52.224;6.924;2024-03-08T13:03:44;13.10;;;6.93;;
43086;SDS011;28708;52.224;6.924;2024-03-08T13:06:11;13.60;;;7.20;;
43086;SDS011;28708;52.224;6.924;2024-03-08T13:08:37;13.30;;;6.90;;
43086;SDS011;28708;52.224;6.924;2024-03-08T13:11:09;16.30;;;7.67;;
43086;SDS011;28708;52.224;6.924;2024-03-08T13:13:39;13.13;;;6.93;;
43086;SDS011;28708;52.224;6.924;2024-03-08T13:16:05;14.90;;;7.20;;
43086;SDS011;28708;52.224;6.924;2024-03-08T13:18:33;12.77;;;6.63;;
43086;SDS011;28708;52.224;6.924;2024-03-08T13:21:00;13.67;;;7.07;;
43086;SDS011;28708;52.224;6.924;2024-03-08T13:23:30;12.07;;;7.28;;
43086;SDS011;28708;52.224;6.924;2024-03-08T13:25:55;12.93;;;7.13;;
43086;SDS011;28708;52.224;6.924;2024-03-08T13:28:22;10.90;;;6.60;;
43086;SDS011;28708;52.224;6.924;2024-03-08T13:30:48;13.03;;;6.77;;
43086;SDS011;28708;52.224;6.924;2024-03-08T13:33:13;13.50;;;6.87;;
43086;SDS011;28708;52.224;6.924;2024-03-08T13:35:39;12.93;;;7.30;;
43086;SDS011;28708;52.224;6.924;2024-03-08T13:38:08;12.10;;;6.30;;
43086;SDS011;28708;52.224;6.924;2024-03-08T13:40:36;10.93;;;6.97;;
43086;SDS011;28708;52.224;6.924;2024-03-08T13:43:02;12.17;;;6.87;;
43086;SDS011;28708;52.224;6.924;2024-03-08T13:45:28;11.17;;;6.80;;
43086;SDS011;28708;52.224;6.924;2024-03-08T13:47:54;13.40;;;6.90;;
43086;SDS011;28708;52.224;6.924;2024-03-08T13:50:20;13.10;;;7.47;;
43086;SDS011;28708;52.224;6.924;2024-03-08T13:52:48;13.50;;;6.57;;
43086;SDS011;28708;52.224;6.924;2024-03-08T13:55:19;12.80;;;7.27;;
43086;SDS011;28708;52.224;6.924;2024-03-08T13:57:45;12.37;;;6.60;;
43086;SDS011;28708;52.224;6.924;2024-03-08T14:00:12;12.77;;;7.50;;
43086;SDS011;28708;52.224;6.924;2024-03-08T14:02:39;14.77;;;7.57;;
43086;SDS011;28708;52.224;6.924;2024-03-08T14:05:06;14.23;;;7.77;;
43086;SDS011;28708;52.224;6.924;2024-03-08T14:07:34;13.47;;;7.67;;
43086;SDS011;28708;52.224;6.924;2024-03-08T14:10:03;13.03;;;7.13;;
43086;SDS011;28708;52.224;6.924;2024-03-08T14:12:29;15.87;;;8.53;;
43086;SDS011;28708;52.224;6.924;2024-03-08T14:14:55;12.63;;;7.30;;
43086;SDS011;28708;52.224;6.924;2024-03-08T14:17:24;11.52;;;7.03;;
43086;SDS011;28708;52.224;6.924;2024-03-08T14:19:52;13.60;;;7.47;;
43086;SDS011;28708;52.224;6.924;2024-03-08T14:22:18;13.57;;;7.43;;
43086;SDS011;28708;52.224;6.924;2024-03-08T14:24:43;12.07;;;7.30;;
43086;SDS011;28708;52.224;6.924;2024-03-08T14:27:09;10.53;;;6.73;;
43086;SDS011;28708;52.224;6.924;2024-03-08T14:29:37;14.20;;;7.60;;
43086;SDS011;28708;52.224;6.924;2024-03-08T14:32:05;16.23;;;8.77;;
43086;SDS011;28708;52.224;6.924;2024-03-08T14:37:00;14.37;;;8.20;;
43086;SDS011;28708;52.224;6.924;2024-03-08T14:39:30;16.85;;;9.40;;
43086;SDS011;28708;52.224;6.924;2024-03-08T14:41:58;13.10;;;8.37;;
43086;SDS011;28708;52.224;6.924;2024-03-08T14:44:25;17.53;;;8.90;;
43086;SDS011;28708;52.224;6.924;2024-03-08T14:46:51;13.60;;;8.03;;
43086;SDS011;28708;52.224;6.924;2024-03-08T14:49:17;18.23;;;9.63;;
43086;SDS011;28708;52.224;6.924;2024-03-08T14:51:44;17.53;;;8.17;;
43086;SDS011;28708;52.224;6.924;2024-03-08T14:54:10;14.43;;;8.60;;
43086;SDS011;28708;52.224;6.924;2024-03-08T14:56:36;19.13;;;9.23;;
43086;SDS011;28708;52.224;6.924;2024-03-08T14:59:02;16.90;;;8.97;;